createdAt,value
2018-10-03T00:01:30.624Z,5.50
2018-10-03T00:03:59.193Z,5.23
2018-10-03T00:06:27.736Z,5.30
2018-10-03T00:08:56.407Z,5.90
2018-10-03T00:11:24.980Z,6.73
2018-10-03T00:13:53.532Z,5.07
2018-10-03T00:16:22.065Z,5.87
2018-10-03T00:18:50.641Z,6.83
2018-10-03T00:21:19.268Z,6.97
2018-10-03T00:23:48.095Z,6.77
2018-10-03T00:26:16.697Z,7.83
2018-10-03T00:28:45.219Z,6.70
2018-10-03T00:31:13.877Z,7.57
2018-10-03T00:33:42.656Z,8.20
2018-10-03T00:36:11.357Z,7.57
2018-10-03T00:38:40.126Z,7.20
2018-10-03T00:41:09.184Z,7.50
2018-10-03T00:43:38.179Z,7.07
2018-10-03T00:46:07.518Z,8.40
2018-10-03T00:48:36.131Z,8.03
2018-10-03T00:51:04.695Z,6.60
2018-10-03T00:53:33.404Z,7.77
2018-10-03T00:56:01.956Z,7.90
2018-10-03T00:58:30.557Z,8.67
2018-10-03T01:00:59.228Z,8.23
2018-10-03T01:03:27.880Z,7.80
2018-10-03T01:05:56.490Z,8.40
2018-10-03T01:08:25.137Z,8.50
2018-10-03T01:10:53.732Z,9.37
2018-10-03T01:13:22.312Z,8.93
2018-10-03T01:15:50.956Z,8.40
2018-10-03T01:18:19.589Z,9.07
2018-10-03T01:20:48.208Z,9.27
2018-10-03T01:23:16.853Z,7.97
2018-10-03T01:25:45.444Z,9.40
2018-10-03T01:28:14.166Z,9.30
2018-10-03T01:30:42.775Z,9.50
2018-10-03T01:33:11.337Z,8.57
2018-10-03T01:35:39.936Z,9.13
2018-10-03T01:38:08.593Z,8.33
2018-10-03T01:40:37.133Z,8.50
2018-10-03T01:43:05.750Z,9.67
2018-10-03T01:45:34.576Z,8.37
2018-10-03T01:48:03.201Z,9.50
2018-10-03T01:50:31.729Z,8.47
2018-10-03T01:53:00.525Z,9.03
2018-10-03T01:55:29.186Z,8.50
2018-10-03T01:57:57.781Z,9.00
2018-10-03T02:00:26.752Z,9.77
2018-10-03T02:02:55.392Z,9.97
2018-10-03T02:05:23.968Z,7.90
2018-10-03T02:07:53.061Z,7.20
2018-10-03T02:10:21.992Z,8.33
2018-10-03T02:12:50.809Z,8.63
2018-10-03T02:15:19.546Z,7.60
2018-10-03T02:17:48.124Z,8.17
2018-10-03T02:20:16.716Z,7.00
2018-10-03T02:22:45.484Z,6.80
2018-10-03T02:25:14.092Z,8.17
2018-10-03T02:27:42.688Z,7.00
2018-10-03T02:30:11.378Z,8.10
2018-10-03T02:32:39.937Z,6.80
2018-10-03T02:35:08.529Z,7.20
2018-10-03T02:37:37.197Z,7.50
2018-10-03T02:40:05.900Z,6.43
2018-10-03T02:42:34.632Z,7.77
2018-10-03T02:45:03.419Z,8.30
2018-10-03T02:47:31.953Z,6.53
2018-10-03T02:50:00.531Z,6.47
2018-10-03T02:52:29.184Z,6.20
2018-10-03T02:54:57.898Z,6.83
2018-10-03T02:57:26.493Z,6.97
2018-10-03T02:59:55.061Z,7.00
2018-10-03T03:02:23.605Z,6.77
2018-10-03T03:04:52.165Z,5.73
2018-10-03T03:07:20.878Z,6.20
2018-10-03T03:09:49.521Z,6.97
2018-10-03T03:12:18.340Z,6.07
2018-10-03T03:14:47.109Z,7.10
2018-10-03T03:17:15.734Z,6.00
2018-10-03T03:19:44.320Z,5.60
2018-10-03T03:22:12.953Z,5.53
2018-10-03T03:24:41.572Z,6.30
2018-10-03T03:27:10.216Z,6.00
2018-10-03T03:29:38.948Z,6.63
2018-10-03T03:32:07.517Z,4.90
2018-10-03T03:34:36.054Z,5.80
2018-10-03T03:37:04.739Z,7.70
2018-10-03T03:39:33.317Z,4.70
2018-10-03T03:42:01.873Z,6.07
2018-10-03T03:44:30.558Z,5.00
2018-10-03T03:46:59.129Z,5.60
2018-10-03T03:49:27.678Z,5.70
2018-10-03T03:51:56.293Z,5.90
2018-10-03T03:54:24.980Z,5.60
2018-10-03T03:56:53.665Z,5.50
2018-10-03T03:59:22.416Z,6.27
2018-10-03T04:01:51.105Z,4.70
2018-10-03T04:04:19.693Z,4.90
2018-10-03T04:06:48.392Z,5.67
2018-10-03T04:09:16.945Z,6.53
2018-10-03T04:11:45.613Z,5.77
2018-10-03T04:14:14.284Z,4.97
2018-10-03T04:16:43.066Z,5.50
2018-10-03T04:19:11.702Z,5.37
2018-10-03T04:21:41.394Z,5.23
2018-10-03T04:24:11.248Z,5.23
2018-10-03T04:26:40.470Z,4.97
2018-10-03T04:29:09.254Z,5.27
2018-10-03T04:31:38.012Z,5.60
2018-10-03T04:34:07.093Z,4.93
2018-10-03T04:36:36.136Z,5.40
2018-10-03T04:39:06.581Z,5.37
2018-10-03T04:41:35.813Z,4.97
2018-10-03T04:44:04.420Z,5.20
2018-10-03T04:46:33.456Z,5.70
2018-10-03T04:49:02.111Z,4.60
2018-10-03T04:51:30.687Z,5.03
2018-10-03T04:53:59.624Z,4.60
2018-10-03T04:56:28.306Z,6.17
2018-10-03T04:58:56.873Z,5.20
2018-10-03T05:01:25.812Z,5.53
2018-10-03T05:03:54.390Z,5.50
2018-10-03T05:06:22.993Z,5.43
2018-10-03T05:08:51.597Z,5.20
2018-10-03T05:11:20.323Z,4.80
2018-10-03T05:13:48.821Z,5.57
2018-10-03T05:16:17.532Z,3.80
2018-10-03T05:18:46.172Z,5.40
2018-10-03T05:21:14.687Z,4.93
2018-10-03T05:23:43.264Z,4.27
2018-10-03T05:26:11.934Z,4.60
2018-10-03T05:28:40.480Z,4.47
2018-10-03T05:31:09.421Z,4.90
2018-10-03T05:33:38.229Z,5.90
2018-10-03T05:36:06.800Z,6.10
2018-10-03T05:38:35.397Z,5.10
2018-10-03T05:41:04.041Z,5.30
2018-10-03T05:43:33.005Z,4.73
2018-10-03T05:46:01.677Z,5.53
2018-10-03T05:48:30.278Z,4.57
2018-10-03T05:50:58.746Z,5.40
2018-10-03T05:53:27.372Z,5.20
2018-10-03T05:55:55.905Z,6.20
2018-10-03T05:58:24.528Z,6.17
2018-10-03T06:00:53.257Z,6.97
2018-10-03T06:03:21.924Z,6.80
2018-10-03T06:05:50.522Z,7.10
2018-10-03T06:08:19.587Z,5.30
2018-10-03T06:10:48.233Z,6.40
2018-10-03T06:13:20.040Z,6.40
2018-10-03T06:15:48.822Z,5.40
2018-10-03T06:18:17.480Z,4.90
2018-10-03T06:20:46.226Z,6.50
2018-10-03T06:23:14.772Z,5.30
2018-10-03T06:25:43.363Z,4.50
2018-10-03T06:28:12.029Z,3.73
2018-10-03T06:30:40.727Z,5.60
2018-10-03T06:33:09.246Z,5.00
2018-10-03T06:35:37.813Z,4.70
2018-10-03T06:38:06.609Z,4.30
2018-10-03T06:40:35.453Z,4.93
2018-10-03T06:43:04.065Z,4.27
2018-10-03T06:45:32.663Z,4.30
2018-10-03T06:48:01.258Z,4.33
2018-10-03T06:50:30.099Z,6.10
2018-10-03T06:52:58.776Z,5.00
2018-10-03T06:55:27.456Z,4.27
2018-10-03T06:57:56.192Z,4.33
2018-10-03T07:00:24.758Z,4.77
2018-10-03T07:02:53.344Z,4.97
2018-10-03T07:05:21.997Z,5.40
2018-10-03T07:07:50.559Z,4.60
2018-10-03T07:10:19.121Z,5.40
2018-10-03T07:12:47.804Z,4.70
2018-10-03T07:15:16.441Z,4.37
2018-10-03T07:17:45.017Z,4.70
2018-10-03T07:20:13.620Z,4.43
2018-10-03T07:22:42.217Z,4.60
2018-10-03T07:25:10.766Z,4.43
2018-10-03T07:27:39.469Z,4.20
2018-10-03T07:30:08.264Z,4.27
2018-10-03T07:32:36.873Z,4.07
2018-10-03T07:35:05.664Z,3.53
2018-10-03T07:37:34.428Z,2.53
2018-10-03T07:40:03.031Z,3.40
2018-10-03T07:42:31.745Z,3.07
2018-10-03T07:45:00.417Z,2.40
2018-10-03T07:47:29.113Z,2.43
2018-10-03T07:49:57.760Z,3.17
2018-10-03T07:52:27.045Z,3.40
2018-10-03T07:54:55.690Z,2.90
2018-10-03T07:57:24.689Z,3.10
2018-10-03T08:00:02.957Z,2.67
2018-10-03T08:02:31.572Z,3.00
2018-10-03T08:05:00.117Z,4.00
2018-10-03T08:07:28.692Z,2.43
2018-10-03T08:09:57.347Z,3.33
2018-10-03T08:12:25.945Z,2.20
2018-10-03T08:14:54.513Z,4.33
2018-10-03T08:17:23.265Z,2.87
2018-10-03T08:19:51.924Z,2.60
2018-10-03T08:22:20.521Z,4.10
2018-10-03T08:24:49.129Z,2.17
2018-10-03T08:27:17.676Z,3.23
2018-10-03T08:29:46.325Z,2.90
2018-10-03T08:32:15.115Z,2.50
2018-10-03T08:34:43.637Z,2.80
2018-10-03T08:37:12.737Z,2.90
2018-10-03T08:39:41.678Z,3.63
2018-10-03T08:42:10.400Z,3.60
2018-10-03T08:44:39.770Z,2.40
2018-10-03T08:47:08.482Z,3.40
2018-10-03T08:49:37.262Z,3.60
2018-10-03T08:52:05.849Z,2.70
2018-10-03T08:54:34.441Z,2.30
2018-10-03T08:57:03.272Z,2.40
2018-10-03T08:59:31.872Z,2.30
2018-10-03T09:02:01.143Z,2.90
2018-10-03T09:04:29.737Z,2.13
2018-10-03T09:06:58.437Z,2.20
2018-10-03T09:09:27.176Z,2.70
2018-10-03T09:11:55.779Z,2.00
2018-10-03T09:14:24.533Z,1.70
2018-10-03T09:16:53.198Z,2.13
2018-10-03T09:19:21.801Z,1.50
2018-10-03T09:21:50.365Z,2.40
2018-10-03T09:24:19.314Z,2.17
2018-10-03T09:26:47.940Z,2.20
2018-10-03T09:29:16.720Z,2.80
2018-10-03T09:31:50.274Z,2.40
2018-10-03T09:34:18.824Z,2.20
2018-10-03T09:36:47.661Z,2.20
2018-10-03T09:39:16.248Z,3.03
2018-10-03T09:41:44.797Z,2.57
2018-10-03T09:44:13.415Z,2.60
2018-10-03T09:46:43.073Z,2.80
2018-10-03T09:49:12.511Z,2.40
2018-10-03T09:51:41.160Z,2.60
2018-10-03T09:54:09.791Z,2.53
2018-10-03T09:56:38.429Z,1.97
2018-10-03T09:59:07.049Z,2.60
2018-10-03T10:01:35.784Z,2.80
2018-10-03T10:04:05.289Z,3.13
2018-10-03T10:06:35.089Z,2.80
2018-10-03T10:09:05.700Z,2.83
2018-10-03T10:11:34.484Z,2.83
2018-10-03T10:14:03.152Z,2.40
2018-10-03T10:16:31.769Z,2.90
2018-10-03T10:19:00.520Z,2.97
2018-10-03T10:21:29.285Z,2.53
2018-10-03T10:23:57.850Z,3.57
2018-10-03T10:26:26.410Z,3.40
2018-10-03T10:29:01.453Z,2.50
2018-10-03T10:31:31.574Z,2.83
2018-10-03T10:34:00.210Z,2.60
2018-10-03T10:36:28.892Z,2.30
2018-10-03T10:38:57.489Z,2.73
2018-10-03T10:41:26.347Z,2.53
2018-10-03T10:43:54.765Z,2.70
2018-10-03T10:46:23.404Z,3.00
2018-10-03T10:48:52.108Z,2.07
2018-10-03T10:51:20.756Z,2.93
2018-10-03T10:53:49.394Z,3.37
2018-10-03T10:56:17.968Z,2.60
2018-10-03T10:58:46.562Z,3.63
2018-10-03T11:01:15.127Z,2.50
2018-10-03T11:03:43.772Z,2.13
2018-10-03T11:06:12.565Z,2.90
2018-10-03T11:08:41.368Z,2.40
2018-10-03T11:11:10.081Z,2.43
2018-10-03T11:13:39.656Z,2.40
2018-10-03T11:16:08.733Z,2.57
2018-10-03T11:18:40.452Z,2.73
2018-10-03T11:21:09.189Z,2.57
2018-10-03T11:23:37.985Z,2.67
2018-10-03T11:26:06.608Z,3.50
2018-10-03T11:28:36.639Z,2.70
2018-10-03T11:31:05.339Z,2.90
2018-10-03T11:33:34.224Z,2.73
2018-10-03T11:36:02.785Z,2.60
2018-10-03T11:38:31.368Z,3.13
2018-10-03T11:41:00.217Z,2.87
2018-10-03T11:43:28.900Z,3.13
2018-10-03T11:45:57.489Z,2.53
2018-10-03T11:48:26.328Z,3.00
2018-10-03T11:50:54.853Z,2.70
2018-10-03T11:53:23.465Z,2.43
2018-10-03T11:55:52.318Z,2.90
2018-10-03T11:58:20.937Z,2.50
2018-10-03T12:00:49.588Z,2.60
2018-10-03T12:03:18.314Z,2.60
2018-10-03T12:05:46.881Z,2.20
2018-10-03T12:08:15.617Z,3.20
2018-10-03T12:10:44.532Z,2.80
2018-10-03T12:13:13.294Z,2.73
2018-10-03T12:15:41.853Z,2.60
2018-10-03T12:18:10.537Z,2.50
2018-10-03T12:20:39.169Z,2.60
2018-10-03T12:23:07.811Z,2.40
2018-10-03T12:25:36.614Z,3.70
2018-10-03T12:28:05.361Z,2.60
2018-10-03T12:30:34.029Z,3.17
2018-10-03T12:33:02.811Z,2.80
2018-10-03T12:35:33.987Z,3.47
2018-10-03T12:38:03.477Z,2.80
2018-10-03T12:40:32.681Z,2.90
2018-10-03T12:43:01.385Z,3.27
2018-10-03T12:45:30.288Z,2.70
2018-10-03T12:47:59.180Z,2.90
2018-10-03T12:50:28.492Z,2.20
2018-10-03T12:52:57.121Z,3.10
2018-10-03T12:55:25.773Z,2.50
2018-10-03T12:57:54.369Z,4.03
2018-10-03T13:00:25.632Z,2.60
2018-10-03T13:02:54.229Z,3.00
2018-10-03T13:05:22.796Z,2.70
2018-10-03T13:07:51.651Z,1.57
2018-10-03T13:10:20.459Z,2.10
2018-10-03T13:12:49.104Z,3.17
2018-10-03T13:15:18.037Z,2.90
2018-10-03T13:17:46.624Z,2.30
2018-10-03T13:20:15.149Z,3.73
2018-10-03T13:22:44.865Z,3.23
2018-10-03T13:25:13.409Z,2.60
2018-10-03T13:27:42.333Z,3.10
2018-10-03T13:30:11.065Z,2.90
2018-10-03T13:32:39.660Z,2.90
2018-10-03T13:35:08.245Z,2.60
2018-10-03T13:37:36.950Z,3.73
2018-10-03T13:40:05.673Z,3.63
2018-10-03T13:42:34.220Z,2.97
2018-10-03T13:45:02.900Z,4.17
2018-10-03T13:47:31.507Z,3.00
2018-10-03T13:50:00.211Z,3.87
2018-10-03T13:52:28.961Z,2.93
2018-10-03T13:54:57.485Z,2.80
2018-10-03T13:57:26.182Z,3.53
2018-10-03T13:59:54.805Z,3.53
2018-10-03T14:02:23.421Z,3.43
2018-10-03T14:04:52.016Z,3.27
2018-10-03T14:07:20.704Z,2.73
2018-10-03T14:09:49.257Z,3.40
2018-10-03T14:12:17.936Z,2.67
2018-10-03T14:14:46.913Z,3.50
2018-10-03T14:17:15.765Z,3.03
2018-10-03T14:19:44.392Z,3.07
2018-10-03T14:22:13.127Z,2.33
2018-10-03T14:24:41.653Z,3.13
2018-10-03T14:27:10.225Z,2.20
2018-10-03T14:29:39.006Z,2.90
2018-10-03T14:32:07.593Z,3.30
2018-10-03T14:34:36.224Z,4.00
2018-10-03T14:37:04.784Z,2.33
2018-10-03T14:39:33.601Z,3.40
2018-10-03T14:42:02.312Z,3.17
2018-10-03T14:44:31.655Z,3.67
2018-10-03T14:47:00.559Z,4.27
2018-10-03T14:49:29.597Z,3.60
2018-10-03T14:51:58.678Z,4.07
2018-10-03T14:54:27.578Z,3.50
2018-10-03T14:56:56.209Z,2.73
2018-10-03T14:59:24.918Z,3.03
2018-10-03T15:01:54.003Z,3.53
2018-10-03T15:04:22.716Z,2.80
2018-10-03T15:06:51.418Z,3.10
2018-10-03T15:09:20.406Z,3.00
2018-10-03T15:11:49.161Z,3.93
2018-10-03T15:14:18.194Z,3.90
2018-10-03T15:16:47.480Z,3.30
2018-10-03T15:19:16.386Z,4.07
2018-10-03T15:21:45.553Z,2.70
2018-10-03T15:24:14.362Z,2.03
2018-10-03T15:26:43.172Z,2.90
2018-10-03T15:29:12.011Z,4.30
2018-10-03T15:31:40.798Z,3.23
2018-10-03T15:34:09.352Z,3.00
2018-10-03T15:36:38.590Z,3.20
2018-10-03T15:39:08.752Z,2.00
2018-10-03T15:41:37.825Z,3.10
2018-10-03T15:44:06.556Z,2.40
2018-10-03T15:46:35.104Z,3.77
2018-10-03T15:49:03.740Z,2.83
2018-10-03T15:51:32.329Z,3.47
2018-10-03T15:54:00.959Z,2.63
2018-10-03T15:56:29.685Z,2.60
2018-10-03T15:58:58.398Z,2.40
2018-10-03T16:01:27.020Z,5.90
2018-10-03T16:03:56.056Z,11.10
2018-10-03T16:06:24.725Z,2.63
2018-10-03T16:08:53.409Z,2.63
2018-10-03T16:11:23.289Z,2.70
2018-10-03T16:13:51.952Z,2.73
2018-10-03T16:16:20.529Z,4.00
2018-10-03T16:18:49.468Z,3.00
2018-10-03T16:21:18.180Z,3.80
2018-10-03T16:23:46.809Z,2.50
2018-10-03T16:26:15.641Z,2.53
2018-10-03T16:28:44.270Z,3.27
2018-10-03T16:31:13.055Z,3.53
2018-10-03T16:33:41.640Z,2.53
2018-10-03T16:36:10.305Z,2.67
2018-10-03T16:38:38.962Z,2.83
2018-10-03T16:41:07.673Z,2.73
2018-10-03T16:43:36.322Z,1.97
2018-10-03T16:46:04.932Z,2.63
2018-10-03T16:48:33.789Z,3.17
2018-10-03T16:51:02.318Z,3.30
2018-10-03T16:53:30.997Z,3.43
2018-10-03T16:55:59.733Z,3.03
2018-10-03T16:58:28.349Z,2.87
2018-10-03T17:00:56.973Z,3.13
2018-10-03T17:03:25.626Z,2.23
2018-10-03T17:08:45.915Z,3.57
2018-10-03T17:11:14.550Z,2.80
2018-10-03T17:13:54.340Z,2.30
2018-10-03T17:16:22.995Z,3.77
2018-10-03T17:18:51.529Z,2.20
2018-10-03T17:21:20.400Z,2.30
2018-10-03T17:23:48.989Z,2.33
2018-10-03T17:26:17.524Z,2.67
2018-10-03T17:28:46.628Z,2.00
2018-10-03T17:31:15.200Z,3.27
2018-10-03T17:33:43.809Z,3.17
2018-10-03T17:36:12.513Z,2.63
2018-10-03T17:38:41.206Z,3.63
2018-10-03T17:41:09.852Z,3.43
2018-10-03T17:43:38.705Z,2.07
2018-10-03T17:46:07.644Z,3.13
2018-10-03T17:48:36.285Z,2.80
2018-10-03T17:51:05.121Z,3.07
2018-10-03T17:53:33.761Z,2.13
2018-10-03T17:56:02.394Z,2.43
2018-10-03T17:58:31.083Z,2.30
2018-10-03T18:00:59.717Z,3.13
2018-10-03T18:03:28.506Z,2.70
2018-10-03T18:05:57.409Z,2.73
2018-10-03T18:08:26.085Z,2.73
2018-10-03T18:10:54.709Z,2.93
2018-10-03T18:13:23.643Z,3.00
2018-10-03T18:15:52.748Z,2.70
2018-10-03T18:18:21.388Z,3.53
2018-10-03T18:20:50.643Z,2.23
2018-10-03T18:23:19.755Z,3.13
2018-10-03T18:25:48.852Z,2.37
2018-10-03T18:28:17.660Z,3.67
2018-10-03T18:30:46.790Z,2.43
2018-10-03T18:33:15.815Z,2.57
2018-10-03T18:35:45.360Z,2.50
2018-10-03T18:38:14.359Z,1.90
2018-10-03T18:40:43.874Z,3.70
2018-10-03T18:43:12.664Z,2.50
2018-10-03T18:45:41.262Z,2.47
2018-10-03T18:48:10.243Z,2.53
2018-10-03T18:50:39.454Z,2.73
2018-10-03T18:53:08.635Z,2.53
2018-10-03T18:55:37.763Z,3.93
2018-10-03T18:58:07.228Z,3.50
2018-10-03T19:00:36.228Z,4.20
2018-10-03T19:03:05.154Z,4.10
2018-10-03T19:05:34.352Z,4.80
2018-10-03T19:08:03.329Z,4.63
2018-10-03T19:10:32.526Z,5.63
2018-10-03T19:13:01.515Z,7.40
2018-10-03T19:15:30.668Z,10.10
2018-10-03T19:18:00.049Z,9.03
2018-10-03T19:20:29.212Z,11.23
2018-10-03T19:22:58.345Z,10.60
2018-10-03T19:25:27.486Z,8.57
2018-10-03T19:27:56.797Z,7.40
2018-10-03T19:30:25.976Z,6.93
2018-10-03T19:32:55.187Z,6.30
2018-10-03T19:35:25.150Z,7.33
2018-10-03T19:37:54.265Z,5.63
2018-10-03T19:40:23.471Z,5.93
2018-10-03T19:42:52.897Z,5.30
2018-10-03T19:45:22.049Z,4.80
2018-10-03T19:47:51.313Z,4.33
2018-10-03T19:50:20.733Z,4.37
2018-10-03T19:52:49.961Z,3.00
2018-10-03T19:55:19.112Z,4.00
2018-10-03T19:57:48.151Z,4.00
2018-10-03T20:00:17.880Z,5.30
2018-10-03T20:02:47.036Z,3.17
2018-10-03T20:05:16.181Z,3.63
2018-10-03T20:07:45.059Z,4.00
2018-10-03T20:10:14.162Z,3.30
2018-10-03T20:12:43.181Z,4.23
2018-10-03T20:15:11.906Z,3.10
2018-10-03T20:17:40.436Z,2.80
2018-10-03T20:20:09.185Z,2.60
2018-10-03T20:22:37.758Z,3.10
2018-10-03T20:25:06.317Z,2.90
2018-10-03T20:27:35.161Z,3.50
2018-10-03T20:30:03.797Z,3.50
2018-10-03T20:32:32.404Z,3.40
2018-10-03T20:35:01.362Z,5.27
2018-10-03T20:37:29.948Z,3.60
2018-10-03T20:39:58.510Z,2.50
2018-10-03T20:42:27.449Z,3.20
2018-10-03T20:44:56.006Z,4.03
2018-10-03T20:47:24.588Z,3.80
2018-10-03T20:49:53.485Z,4.40
2018-10-03T20:52:22.123Z,5.17
2018-10-03T20:54:50.661Z,4.07
2018-10-03T20:57:19.196Z,4.00
2018-10-03T20:59:47.709Z,3.10
2018-10-03T21:02:16.285Z,3.90
2018-10-03T21:04:44.936Z,3.80
2018-10-03T21:07:13.701Z,4.80
2018-10-03T21:09:42.276Z,4.00
2018-10-03T21:12:11.232Z,4.10
2018-10-03T21:14:39.768Z,3.33
2018-10-03T21:17:08.383Z,4.23
2018-10-03T21:19:37.013Z,3.77
2018-10-03T21:22:05.604Z,4.80
2018-10-03T21:24:34.168Z,2.50
2018-10-03T21:27:03.008Z,2.47
2018-10-03T21:29:31.525Z,3.70
2018-10-03T21:32:00.174Z,2.37
2018-10-03T21:34:28.904Z,2.53
2018-10-03T21:36:57.506Z,2.93
2018-10-03T21:39:26.246Z,3.23
2018-10-03T21:41:54.993Z,3.03
2018-10-03T21:44:23.497Z,3.10
2018-10-03T21:46:52.022Z,3.50
2018-10-03T21:49:20.788Z,2.80
2018-10-03T21:51:49.334Z,3.63
2018-10-03T21:54:17.937Z,3.03
2018-10-03T21:56:47.009Z,3.57
2018-10-03T21:59:15.584Z,2.27
2018-10-03T22:01:44.200Z,2.03
2018-10-03T22:04:12.881Z,2.50
2018-10-03T22:06:41.597Z,2.40
2018-10-03T22:09:10.228Z,2.97
2018-10-03T22:11:38.780Z,3.47
2018-10-03T22:14:07.360Z,3.30
2018-10-03T22:16:36.248Z,3.50
2018-10-03T22:19:04.813Z,2.73
2018-10-03T22:21:33.452Z,2.30
2018-10-03T22:24:02.064Z,2.40
2018-10-03T22:26:30.669Z,2.47
2018-10-03T22:28:59.304Z,2.23
2018-10-03T22:31:27.802Z,2.93
2018-10-03T22:33:56.654Z,3.47
2018-10-03T22:36:25.200Z,3.10
2018-10-03T22:38:53.778Z,3.20
2018-10-03T22:41:22.544Z,4.07
2018-10-03T22:43:51.096Z,3.37
2018-10-03T22:46:19.652Z,4.27
2018-10-03T22:48:48.429Z,4.50
2018-10-03T22:51:17.100Z,4.30
2018-10-03T22:53:45.743Z,3.00
2018-10-03T22:56:14.432Z,3.00
2018-10-03T22:58:42.985Z,4.23
2018-10-03T23:01:11.597Z,3.90
2018-10-03T23:03:40.145Z,3.13
2018-10-03T23:06:08.785Z,3.17
2018-10-03T23:08:37.304Z,2.70
2018-10-03T23:11:05.992Z,3.23
2018-10-03T23:13:34.561Z,2.90
2018-10-03T23:16:03.193Z,2.80
2018-10-03T23:18:31.761Z,2.80
2018-10-03T23:21:00.264Z,2.47
2018-10-03T23:23:28.825Z,3.33
2018-10-03T23:25:57.721Z,2.30
2018-10-03T23:28:26.340Z,3.10
2018-10-03T23:30:55.048Z,3.13
2018-10-03T23:33:23.666Z,3.37
2018-10-03T23:35:52.289Z,2.70
2018-10-03T23:38:20.800Z,3.03
2018-10-03T23:40:49.552Z,3.60
2018-10-03T23:43:18.253Z,3.23
2018-10-03T23:45:46.777Z,4.13
2018-10-03T23:48:15.560Z,3.67
2018-10-03T23:50:44.121Z,2.70
2018-10-03T23:53:12.708Z,3.20
2018-10-03T23:55:41.306Z,3.20
2018-10-03T23:58:09.954Z,3.23
